Time;durP1;ratioP1;P1;durP2;ratioP2;P2;SDS_P1;SDS_P2;PMS_P1;PMS_P2;Temp;Humidity;BMP_temperature;BMP_pressure;BME280_temperature;BME280_humidity;BME280_pressure;Samples;Min_cycle;Max_cycle;Signal;HPM_P1;HPM_P2
2022/09/17 00:00:09;;;;;;;10.17;9.87;;;14.50;35.80;;;;;;5025882;28;20184;-43
2022/09/17 00:02:35;;;;;;;10.47;10.17;;;14.30;35.20;;;;;;5020640;28;20228;-41
2022/09/17 00:05:01;;;;;;;9.47;9.17;;;14.40;37.60;;;;;;5016139;28;20439;-48
2022/09/17 00:07:27;;;;;;;9.73;9.33;;;14.70;36.20;;;;;;5010453;28;20608;-42
2022/09/17 00:09:53;;;;;;;9.27;9.07;;;14.60;33.60;;;;;;5021175;28;20644;-44
2022/09/17 00:12:18;;;;;;;10.73;10.33;;;14.50;33.70;;;;;;5018612;28;20466;-43
2022/09/17 00:14:44;;;;;;;9.83;9.53;;;14.70;35.60;;;;;;5014387;28;20493;-43
2022/09/17 00:17:10;;;;;;;9.83;9.53;;;14.80;33.60;;;;;;5018837;28;20239;-44
2022/09/17 00:19:36;;;;;;;10.37;9.87;;;14.90;35.80;;;;;;5017935;28;20184;-44
2022/09/17 00:22:02;;;;;;;10.30;10.00;;;15.00;32.50;;;;;;5039423;28;20431;-43
2022/09/17 00:24:28;;;;;;;9.70;9.40;;;14.80;31.30;;;;;;5018767;28;20191;-42
2022/09/17 00:26:54;;;;;;;9.70;9.40;;;14.70;32.40;;;;;;5023744;28;20184;-44
2022/09/17 00:29:19;;;;;;;10.27;9.97;;;14.80;34.30;;;;;;5011811;28;20478;-42
2022/09/17 00:31:45;;;;;;;9.80;9.50;;;14.90;34.00;;;;;;5023353;28;20180;-43
2022/09/17 00:34:11;;;;;;;10.10;9.80;;;14.90;32.70;;;;;;5016203;28;20177;-42
2022/09/17 00:36:38;;;;;;;9.90;9.50;;;14.80;31.70;;;;;;5017089;28;20216;-43
2022/09/17 00:39:05;;;;;;;9.73;9.43;;;14.70;32.20;;;;;;5017032;28;20176;-45
2022/09/17 00:41:33;;;;;;;9.77;9.47;;;14.70;32.30;;;;;;5012206;28;20424;-42
2022/09/17 00:44:20;;;;;;;9.70;9.40;;;14.90;35.50;;;;;;5006571;28;20448;-43
2022/09/17 00:46:48;;;;;;;10.50;10.20;;;14.90;31.90;;;;;;5026347;28;20415;-43
2022/09/17 00:49:24;;;;;;;10.20;9.90;;;14.90;34.10;;;;;;5040012;28;20946;-47
2022/09/17 00:52:13;;;;;;;10.20;9.70;;;14.70;34.30;;;;;;5019694;28;20463;-46
2022/09/17 00:54:43;;;;;;;9.77;9.47;;;14.60;33.70;;;;;;5021121;28;20819;-47
2022/09/17 00:57:09;;;;;;;9.57;9.27;;;14.30;33.10;;;;;;5019044;28;20424;-47
2022/09/17 00:59:35;;;;;;;10.53;10.13;;;14.10;33.80;;;;;;5025453;28;20510;-47
2022/09/17 01:02:01;;;;;;;9.77;9.27;;;14.00;36.20;;;;;;5017092;28;20183;-46
2022/09/17 01:04:27;;;;;;;10.10;9.80;;;14.20;33.90;;;;;;5026923;28;20420;-46
2022/09/17 01:07:28;;;;;;;10.60;10.30;;;14.20;35.90;;;;;;5012762;28;20945;-51
2022/09/17 01:10:06;;;;;;;9.60;9.10;;;14.20;35.90;;;;;;4991988;28;20838;-47
2022/09/17 01:13:03;;;;;;;11.00;10.50;;;14.50;35.00;;;;;;5009175;28;20795;-46
2022/09/17 01:15:31;;;;;;;10.20;9.90;;;14.70;35.60;;;;;;5004100;28;20423;-46
2022/09/17 01:18:25;;;;;;;10.60;10.30;;;14.80;32.90;;;;;;5002462;28;20451;-54
2022/09/17 01:21:27;;;;;;;10.93;10.63;;;14.70;33.20;;;;;;5008481;28;20452;-46
2022/09/17 01:23:59;;;;;;;11.40;11.00;;;14.90;36.00;;;;;;5008334;28;20982;-48
2022/09/17 01:26:52;;;;;;;9.97;9.67;;;14.80;33.80;;;;;;5006083;28;20450;-46
2022/09/17 01:30:05;;;;;;;10.03;9.73;;;14.70;31.80;;;;;;5009528;28;20428;-47
2022/09/17 01:32:44;;;;;;;10.47;10.07;;;14.50;33.10;;;;;;4974456;28;20486;-50
2022/09/17 01:35:33;;;;;;;11.30;10.33;;;14.30;34.50;;;;;;5008916;28;20431;-47
2022/09/17 01:38:36;;;;;;;9.87;9.57;;;13.90;33.60;;;;;;5007191;28;20416;-46
2022/09/17 01:41:06;;;;;;;10.90;10.50;;;13.60;35.80;;;;;;5013769;28;20510;-51
2022/09/17 01:43:40;;;;;;;11.23;10.77;;;13.60;37.40;;;;;;5019838;28;20506;-49
2022/09/17 01:46:29;;;;;;;10.87;10.57;;;13.70;36.30;;;;;;5024383;28;20822;-49
2022/09/17 01:49:02;;;;;;;11.13;10.40;;;13.60;35.10;;;;;;5015844;28;20407;-49
2022/09/17 01:51:35;;;;;;;11.63;11.20;;;13.60;35.50;;;;;;5020766;28;20413;-53
2022/09/17 01:54:03;;;;;;;11.17;10.77;;;13.50;37.10;;;;;;5022695;28;20422;-52
2022/09/17 01:56:50;;;;;;;10.57;10.17;;;13.50;36.50;;;;;;5023199;28;21026;-47
2022/09/17 01:59:21;;;;;;;11.80;11.23;;;13.20;36.50;;;;;;5014359;28;20470;-52
2022/09/17 02:01:56;;;;;;;10.87;10.57;;;13.20;37.70;;;;;;5003711;28;20413;-50
2022/09/17 02:04:31;;;;;;;11.00;10.60;;;13.30;37.60;;;;;;5011300;28;20407;-51
2022/09/17 02:07:03;;;;;;;11.77;11.23;;;13.30;37.50;;;;;;5002024;28;20428;-47
2022/09/17 02:09:41;;;;;;;10.70;10.40;;;13.40;37.40;;;;;;4998553;28;20967;-47
2022/09/17 02:12:12;;;;;;;11.60;11.20;;;13.40;36.50;;;;;;4999714;28;21079;-47
2022/09/17 02:14:51;;;;;;;11.47;10.97;;;13.30;36.50;;;;;;5009478;28;20498;-48
2022/09/17 02:17:42;;;;;;;11.23;10.57;;;13.40;37.70;;;;;;5004716;28;20461;-48
2022/09/17 02:20:09;;;;;;;11.43;11.00;;;13.30;37.30;;;;;;5006706;28;20429;-49
2022/09/17 02:22:47;;;;;;;12.17;11.77;;;13.30;37.10;;;;;;5006177;28;20420;-47
2022/09/17 02:25:36;;;;;;;11.10;10.70;;;13.20;37.30;;;;;;5001519;28;20443;-47
2022/09/17 02:28:26;;;;;;;11.90;11.30;;;13.30;36.30;;;;;;5007554;28;20455;-51
2022/09/17 02:30:52;;;;;;;11.63;11.17;;;13.30;36.60;;;;;;5003340;28;20438;-51
2022/09/17 02:33:20;;;;;;;11.20;10.80;;;13.40;38.50;;;;;;4999616;28;20467;-48
2022/09/17 02:35:46;;;;;;;11.50;11.10;;;13.60;35.90;;;;;;5010203;28;20412;-46
2022/09/17 02:38:12;;;;;;;11.40;10.90;;;13.80;36.20;;;;;;5011642;28;20453;-47
2022/09/17 02:40:48;;;;;;;11.80;11.30;;;13.80;37.00;;;;;;5029930;28;20407;-47
2022/09/17 02:43:25;;;;;;;10.97;10.47;;;13.90;35.60;;;;;;5007432;28;20187;-50
2022/09/17 02:45:56;;;;;;;11.83;11.23;;;14.10;36.70;;;;;;5007193;28;20418;-48
2022/09/17 02:48:27;;;;;;;11.40;11.10;;;14.20;36.70;;;;;;5006822;28;20485;-51
2022/09/17 02:51:02;;;;;;;11.47;11.07;;;14.20;34.50;;;;;;5000467;28;20416;-50
2022/09/17 02:53:46;;;;;;;11.30;11.00;;;14.10;33.40;;;;;;5004397;28;20966;-50
2022/09/17 02:56:50;;;;;;;11.90;11.30;;;14.10;35.10;;;;;;5023550;28;20443;-48
2022/09/17 02:59:42;;;;;;;11.60;11.20;;;13.90;35.40;;;;;;5003511;28;20426;-49
2022/09/17 03:02:16;;;;;;;10.87;10.50;;;14.00;34.70;;;;;;5010764;28;20419;-47
2022/09/17 03:04:42;;;;;;;11.13;10.73;;;13.90;34.60;;;;;;5007511;28;20582;-48
2022/09/17 03:07:10;;;;;;;11.73;11.13;;;14.00;35.50;;;;;;5002818;28;20431;-48
2022/09/17 03:09:37;;;;;;;10.83;10.40;;;13.80;33.40;;;;;;5005254;28;20450;-44
2022/09/17 03:12:03;;;;;;;11.40;11.10;;;13.90;34.90;;;;;;5000600;28;20761;-42
2022/09/17 03:14:29;;;;;;;11.63;10.83;;;13.80;34.80;;;;;;5004294;28;20430;-42
2022/09/17 03:16:55;;;;;;;11.00;10.70;;;13.70;34.70;;;;;;4999494;28;20871;-42
2022/09/17 03:19:21;;;;;;;10.97;10.57;;;13.50;35.40;;;;;;5007587;28;20176;-45
2022/09/17 03:21:46;;;;;;;11.83;11.03;;;13.50;35.90;;;;;;5006460;28;20954;-47
2022/09/17 03:24:12;;;;;;;11.30;10.80;;;13.50;35.40;;;;;;5013296;28;20230;-43
2022/09/17 03:26:38;;;;;;;11.13;10.73;;;13.50;34.80;;;;;;4995484;28;20220;-42
2022/09/17 03:29:03;;;;;;;11.07;10.77;;;13.40;34.90;;;;;;5002160;28;20169;-46
2022/09/17 03:31:29;;;;;;;11.70;11.30;;;13.40;36.80;;;;;;5008247;28;20205;-44
2022/09/17 03:33:55;;;;;;;11.77;11.00;;;13.10;36.40;;;;;;4999847;28;20566;-42
2022/09/17 03:36:20;;;;;;;11.70;11.30;;;12.90;36.90;;;;;;5003767;28;20177;-42
2022/09/17 03:38:46;;;;;;;12.60;11.90;;;12.80;37.30;;;;;;5020870;28;20536;-43
2022/09/17 03:41:12;;;;;;;11.43;10.93;;;12.80;37.40;;;;;;5001112;28;20638;-44
2022/09/17 03:43:38;;;;;;;11.97;11.17;;;13.10;39.10;;;;;;4994835;28;20592;-49
2022/09/17 03:46:05;;;;;;;11.27;10.87;;;13.20;37.60;;;;;;4995983;28;20594;-43
2022/09/17 03:48:31;;;;;;;11.63;11.23;;;13.30;37.00;;;;;;4999286;28;20800;-43
2022/09/17 03:50:57;;;;;;;11.03;10.73;;;13.40;36.90;;;;;;4996709;28;20435;-42
2022/09/17 03:53:23;;;;;;;10.90;10.43;;;13.70;38.30;;;;;;5000909;28;20463;-44
2022/09/17 03:55:49;;;;;;;11.33;10.80;;;13.90;37.00;;;;;;5013088;28;20436;-42
2022/09/17 03:58:14;;;;;;;11.50;11.10;;;13.90;34.10;;;;;;5012516;28;20823;-48
2022/09/17 04:00:41;;;;;;;11.07;10.77;;;14.20;37.00;;;;;;5019149;28;20423;-48
2022/09/17 04:03:07;;;;;;;11.10;10.43;;;14.30;35.30;;;;;;5016457;28;20188;-47
2022/09/17 04:05:33;;;;;;;11.97;11.00;;;14.40;33.20;;;;;;5035225;28;20419;-49
2022/09/17 04:07:58;;;;;;;10.50;10.20;;;14.50;35.40;;;;;;5011107;28;20184;-47
2022/09/17 04:10:24;;;;;;;10.50;10.20;;;14.30;32.50;;;;;;5011310;28;20671;-50
2022/09/17 04:12:50;;;;;;;9.83;9.43;;;14.20;33.90;;;;;;5020452;28;20201;-47
2022/09/17 04:15:15;;;;;;;10.30;9.80;;;14.30;33.30;;;;;;5016697;28;20192;-42
2022/09/17 04:17:41;;;;;;;10.50;10.20;;;14.00;32.90;;;;;;5016696;28;20187;-46
2022/09/17 04:20:07;;;;;;;11.20;10.50;;;13.50;35.30;;;;;;5015033;28;20177;-42
2022/09/17 04:22:33;;;;;;;11.03;10.43;;;13.50;34.10;;;;;;5015270;28;20235;-50
2022/09/17 04:24:58;;;;;;;11.80;11.20;;;13.60;36.50;;;;;;5016100;28;20530;-45
2022/09/17 04:27:24;;;;;;;10.33;9.93;;;13.70;34.10;;;;;;5010663;28;20183;-46
2022/09/17 04:29:50;;;;;;;11.20;10.70;;;13.60;33.00;;;;;;5015742;28;20522;-48
2022/09/17 04:32:16;;;;;;;10.63;10.33;;;13.30;34.40;;;;;;5030314;28;20247;-43
2022/09/17 04:34:41;;;;;;;11.50;10.90;;;13.10;34.60;;;;;;5011978;28;20173;-46
2022/09/17 04:37:07;;;;;;;10.67;10.37;;;13.20;34.30;;;;;;5015247;28;20633;-46
2022/09/17 04:39:34;;;;;;;11.57;10.97;;;13.30;35.30;;;;;;5019970;28;20593;-45
2022/09/17 04:42:00;;;;;;;11.60;10.73;;;13.10;33.80;;;;;;5013192;28;20474;-45
2022/09/17 04:44:25;;;;;;;11.50;11.10;;;13.00;34.10;;;;;;5010269;28;20435;-44
2022/09/17 04:46:51;;;;;;;11.47;10.90;;;12.80;34.00;;;;;;5014987;28;20184;-44
2022/09/17 04:49:16;;;;;;;11.57;10.60;;;12.90;35.00;;;;;;5014589;28;20700;-41
2022/09/17 04:51:42;;;;;;;11.60;11.10;;;12.90;34.70;;;;;;5008704;28;20209;-45
2022/09/17 04:54:07;;;;;;;12.37;11.30;;;13.20;37.80;;;;;;4994561;28;20268;-46
2022/09/17 04:56:33;;;;;;;12.30;11.70;;;13.00;34.10;;;;;;4995962;28;20325;-42
2022/09/17 04:58:59;;;;;;;12.57;12.07;;;12.80;35.20;;;;;;4994548;28;20189;-46
2022/09/17 05:01:25;;;;;;;12.47;11.60;;;12.80;35.80;;;;;;4995570;28;20184;-46
2022/09/17 05:03:50;;;;;;;11.90;11.40;;;12.80;34.90;;;;;;4995269;28;20185;-45
2022/09/17 05:06:16;;;;;;;12.17;11.73;;;12.90;35.20;;;;;;4995362;28;20227;-48
2022/09/17 05:08:41;;;;;;;11.93;11.50;;;13.00;34.10;;;;;;4995043;28;20185;-42
2022/09/17 05:11:07;;;;;;;11.47;10.97;;;12.90;34.00;;;;;;4994820;28;20223;-43
2022/09/17 05:13:33;;;;;;;11.70;11.20;;;13.00;35.40;;;;;;5011429;28;20212;-45
2022/09/17 05:15:58;;;;;;;11.83;11.20;;;13.10;36.00;;;;;;5012474;28;20177;-48
2022/09/17 05:18:25;;;;;;;12.40;12.00;;;13.00;34.10;;;;;;4995151;28;20232;-45
2022/09/17 05:20:51;;;;;;;12.63;11.83;;;13.00;34.60;;;;;;4994960;28;20177;-43
2022/09/17 05:23:17;;;;;;;13.37;12.63;;;12.90;34.90;;;;;;5012530;28;20472;-43
2022/09/17 05:25:42;;;;;;;12.27;11.77;;;13.00;34.70;;;;;;4995202;28;20452;-45
2022/09/17 05:28:08;;;;;;;13.40;12.60;;;13.10;34.20;;;;;;4995033;28;20515;-43
2022/09/17 05:30:34;;;;;;;12.53;11.87;;;13.20;35.10;;;;;;4994353;28;20189;-44
2022/09/17 05:33:02;;;;;;;11.93;11.53;;;13.30;34.20;;;;;;4994440;28;20300;-44
2022/09/17 05:35:28;;;;;;;11.70;11.20;;;13.30;35.10;;;;;;4994570;28;20232;-44
2022/09/17 05:37:59;;;;;;;12.67;11.70;;;13.60;36.90;;;;;;4994501;28;20413;-45
2022/09/17 05:40:25;;;;;;;12.87;12.17;;;13.70;33.10;;;;;;4994821;28;20421;-44
2022/09/17 05:42:51;;;;;;;17.97;16.87;;;13.60;32.30;;;;;;4995113;28;20452;-43
2022/09/17 05:45:16;;;;;;;14.97;14.00;;;13.40;32.70;;;;;;4994526;28;20452;-45
2022/09/17 05:47:42;;;;;;;11.90;11.40;;;13.10;34.20;;;;;;4994091;28;20189;-45
2022/09/17 05:50:08;;;;;;;12.83;12.13;;;13.20;36.40;;;;;;4994284;28;20280;-44
2022/09/17 05:52:33;;;;;;;12.50;11.80;;;13.20;33.10;;;;;;4994016;28;20208;-43
2022/09/17 05:54:59;;;;;;;12.30;11.50;;;12.90;36.20;;;;;;4994777;28;20419;-46
2022/09/17 05:57:28;;;;;;;12.57;12.10;;;13.00;34.60;;;;;;4994029;28;20182;-49
2022/09/17 05:59:53;;;;;;;12.90;12.30;;;13.20;34.30;;;;;;4993909;28;20199;-44
2022/09/17 06:02:19;;;;;;;12.90;12.33;;;13.30;34.40;;;;;;4993947;28;20424;-44
2022/09/17 06:04:45;;;;;;;13.50;13.00;;;13.10;34.00;;;;;;5011933;28;20565;-49
2022/09/17 06:07:10;;;;;;;12.27;11.60;;;13.10;35.20;;;;;;4994707;28;20541;-47
2022/09/17 06:09:36;;;;;;;12.10;10.97;;;13.00;34.60;;;;;;4994511;28;20192;-49
2022/09/17 06:12:03;;;;;;;11.63;10.83;;;12.80;34.50;;;;;;4994015;28;20220;-47
2022/09/17 06:14:29;;;;;;;12.53;11.87;;;12.60;35.60;;;;;;4994309;28;20177;-49
2022/09/17 06:16:55;;;;;;;13.40;12.50;;;12.60;35.80;;;;;;4994057;28;20774;-48
2022/09/17 06:19:21;;;;;;;13.47;12.40;;;12.50;36.30;;;;;;4994072;28;20597;-48
2022/09/17 06:21:49;;;;;;;12.40;11.80;;;12.70;35.80;;;;;;4993883;28;20444;-47
2022/09/17 06:24:15;;;;;;;12.83;12.27;;;12.60;36.30;;;;;;4994231;28;20194;-49
2022/09/17 06:26:41;;;;;;;14.67;13.77;;;12.70;35.70;;;;;;5011982;28;20800;-48
2022/09/17 06:29:06;;;;;;;12.83;12.13;;;12.80;34.80;;;;;;4995252;28;20416;-48
2022/09/17 06:31:32;;;;;;;12.87;12.17;;;12.80;36.20;;;;;;4994437;28;20264;-49
2022/09/17 06:33:58;;;;;;;13.13;12.37;;;12.80;35.40;;;;;;4993940;28;20258;-47
2022/09/17 06:36:23;;;;;;;12.80;12.20;;;12.80;36.30;;;;;;4994132;28;20177;-49
2022/09/17 06:38:49;;;;;;;12.80;12.30;;;12.90;34.00;;;;;;4993957;28;20612;-50
2022/09/17 06:41:15;;;;;;;12.83;12.33;;;13.00;35.60;;;;;;4993022;28;20173;-47
2022/09/17 06:43:41;;;;;;;13.70;13.10;;;13.00;34.10;;;;;;4993377;28;20440;-48
2022/09/17 06:46:09;;;;;;;13.90;13.30;;;13.20;33.50;;;;;;4993923;28;20719;-49
2022/09/17 06:48:35;;;;;;;12.63;12.17;;;13.30;34.40;;;;;;4993422;28;20432;-46
2022/09/17 06:51:04;;;;;;;13.13;12.53;;;13.70;36.80;;;;;;4993095;28;20502;-50
2022/09/17 06:53:30;;;;;;;13.23;12.57;;;13.90;34.90;;;;;;4993062;28;20468;-47
2022/09/17 06:55:57;;;;;;;13.83;13.33;;;13.60;30.90;;;;;;4993525;28;20919;-44
2022/09/17 06:58:23;;;;;;;13.93;13.27;;;13.20;32.70;;;;;;4993740;28;20564;-44
2022/09/17 07:00:49;;;;;;;14.23;13.73;;;13.10;33.10;;;;;;4992797;28;20455;-45
2022/09/17 07:03:15;;;;;;;13.23;12.80;;;13.10;34.20;;;;;;4993410;28;20929;-45
2022/09/17 07:05:43;;;;;;;13.50;13.00;;;13.10;34.20;;;;;;4993575;28;20185;-50
2022/09/17 07:08:09;;;;;;;13.30;12.70;;;13.10;34.00;;;;;;4993106;28;20181;-49
2022/09/17 07:10:35;;;;;;;13.57;12.97;;;13.00;34.10;;;;;;4994098;28;20420;-48
2022/09/17 07:13:01;;;;;;;13.73;12.87;;;13.10;36.90;;;;;;5011222;28;20470;-48
2022/09/17 07:15:28;;;;;;;13.57;12.87;;;13.10;36.60;;;;;;4993792;28;20424;-47
2022/09/17 07:17:54;;;;;;;12.50;12.00;;;13.10;38.70;;;;;;4994149;28;20232;-46
2022/09/17 07:20:19;;;;;;;12.80;11.93;;;13.10;37.50;;;;;;4993377;28;20420;-47
2022/09/17 07:22:53;;;;;;;13.80;12.93;;;13.10;37.90;;;;;;4993638;28;20272;-49
2022/09/17 07:25:18;;;;;;;13.47;12.77;;;13.10;39.10;;;;;;4993316;28;20197;-49
2022/09/17 07:27:44;;;;;;;14.00;13.30;;;12.70;40.90;;;;;;4993246;28;20843;-49
2022/09/17 07:30:11;;;;;;;13.27;12.50;;;12.50;43.10;;;;;;4993712;28;20181;-45
2022/09/17 07:32:37;;;;;;;11.93;11.40;;;12.60;43.50;;;;;;4992783;28;20217;-47
2022/09/17 07:35:03;;;;;;;12.70;12.20;;;12.50;41.90;;;;;;4993682;28;20822;-50
2022/09/17 07:37:28;;;;;;;12.70;12.10;;;12.30;42.10;;;;;;4997398;28;20173;-46
2022/09/17 07:39:54;;;;;;;12.47;11.97;;;12.30;44.20;;;;;;4997275;28;20420;-51
2022/09/17 07:42:20;;;;;;;11.87;11.47;;;12.40;44.10;;;;;;4997376;28;20229;-48
2022/09/17 07:44:45;;;;;;;12.03;11.53;;;12.60;45.30;;;;;;4997346;28;20638;-47
2022/09/17 07:47:11;;;;;;;12.30;11.70;;;12.70;43.90;;;;;;4997203;28;20185;-51
2022/09/17 07:49:37;;;;;;;13.50;12.90;;;12.90;43.60;;;;;;4997260;28;20181;-51
2022/09/17 07:52:05;;;;;;;12.43;11.83;;;12.90;43.10;;;;;;4997125;28;20177;-49
2022/09/17 07:54:32;;;;;;;11.50;11.00;;;12.90;44.20;;;;;;4997252;28;20629;-48
2022/09/17 07:56:58;;;;;;;12.97;12.27;;;13.20;43.50;;;;;;4996977;28;20423;-46
2022/09/17 07:59:24;;;;;;;11.80;11.30;;;13.10;41.60;;;;;;4997168;28;20481;-47
2022/09/17 08:01:49;;;;;;;11.37;10.90;;;12.90;41.30;;;;;;4996498;28;20498;-43
2022/09/17 08:04:16;;;;;;;11.87;11.37;;;13.10;42.20;;;;;;4995921;28;20243;-45
2022/09/17 08:06:41;;;;;;;12.83;12.23;;;13.20;41.40;;;;;;4996471;28;20181;-43
2022/09/17 08:09:09;;;;;;;11.53;11.03;;;13.20;41.70;;;;;;4996334;28;20470;-44
2022/09/17 08:11:35;;;;;;;11.70;11.20;;;13.30;40.90;;;;;;4996142;28;20177;-42
2022/09/17 08:14:01;;;;;;;11.40;11.00;;;13.30;41.40;;;;;;4995696;28;20464;-43
2022/09/17 08:16:26;;;;;;;11.50;11.10;;;13.30;41.50;;;;;;5013645;28;20943;-44
2022/09/17 08:18:56;;;;;;;12.23;11.70;;;13.20;41.10;;;;;;4996141;28;20672;-49
2022/09/17 08:21:23;;;;;;;11.57;10.87;;;13.40;42.00;;;;;;4996590;28;20518;-47
2022/09/17 08:23:48;;;;;;;11.60;11.03;;;13.60;41.50;;;;;;4996660;28;20463;-44
2022/09/17 08:26:18;;;;;;;11.10;10.57;;;13.40;38.60;;;;;;4995750;28;20472;-44
2022/09/17 08:28:46;;;;;;;12.10;11.50;;;13.10;40.10;;;;;;4995811;28;20186;-47
2022/09/17 08:31:13;;;;;;;11.43;11.03;;;13.00;41.40;;;;;;4996561;28;20828;-45
2022/09/17 08:33:40;;;;;;;11.40;10.80;;;13.00;42.10;;;;;;4995639;28;20476;-43
2022/09/17 08:36:09;;;;;;;11.83;11.30;;;13.00;41.00;;;;;;5013476;28;20405;-45
2022/09/17 08:38:36;;;;;;;13.10;12.00;;;13.20;41.10;;;;;;4995820;28;20420;-43
2022/09/17 08:41:25;;;;;;;11.60;11.03;;;13.00;40.30;;;;;;4995400;28;20428;-44
2022/09/17 08:44:03;;;;;;;12.10;11.50;;;13.10;41.80;;;;;;4995341;28;20420;-42
2022/09/17 08:46:41;;;;;;;11.77;11.10;;;13.20;40.70;;;;;;4995623;28;20412;-44
2022/09/17 08:49:33;;;;;;;13.33;12.43;;;13.20;38.90;;;;;;4995590;28;20792;-43
2022/09/17 08:52:08;;;;;;;12.40;11.70;;;13.00;41.40;;;;;;4987248;28;20417;-44
2022/09/17 08:54:59;;;;;;;12.10;11.37;;;13.00;41.10;;;;;;4995174;28;20436;-44
2022/09/17 08:57:41;;;;;;;12.90;12.20;;;12.80;41.80;;;;;;4995584;28;20448;-46
2022/09/17 09:00:17;;;;;;;12.90;11.60;;;12.90;43.00;;;;;;4995819;28;20426;-52
2022/09/17 09:03:15;;;;;;;12.27;11.77;;;13.30;41.40;;;;;;5013483;28;20419;-50
2022/09/17 09:05:47;;;;;;;13.10;12.13;;;13.60;41.60;;;;;;4995545;28;20459;-48
2022/09/17 09:08:21;;;;;;;13.60;12.67;;;13.90;37.20;;;;;;4995635;28;20452;-49
2022/09/17 09:10:56;;;;;;;11.73;11.17;;;13.70;38.00;;;;;;4995511;28;20412;-50
2022/09/17 09:13:27;;;;;;;12.70;12.10;;;13.80;39.40;;;;;;4995648;28;20988;-47
2022/09/17 09:16:04;;;;;;;13.70;12.70;;;14.10;37.80;;;;;;4995363;28;20420;-44
2022/09/17 09:18:39;;;;;;;12.87;12.07;;;14.20;35.60;;;;;;4995147;28;20994;-49
2022/09/17 09:21:08;;;;;;;13.40;12.17;;;14.40;34.80;;;;;;4995759;28;20416;-52
2022/09/17 09:23:47;;;;;;;12.50;11.83;;;14.20;35.20;;;;;;4994793;28;20428;-47
2022/09/17 09:26:31;;;;;;;12.03;11.53;;;13.90;37.30;;;;;;4993972;28;20443;-46
2022/09/17 09:29:00;;;;;;;13.37;12.57;;;13.90;37.30;;;;;;4993512;28;20424;-48
2022/09/17 09:31:29;;;;;;;12.20;11.60;;;13.70;37.50;;;;;;4993179;28;20424;-43
2022/09/17 09:33:55;;;;;;;13.80;12.87;;;13.80;36.80;;;;;;4993572;28;20801;-47
2022/09/17 09:36:20;;;;;;;13.67;12.47;;;13.90;36.20;;;;;;4993538;28;20421;-49
2022/09/17 09:38:58;;;;;;;12.80;12.20;;;13.80;35.50;;;;;;4993421;28;20547;-47
2022/09/17 09:41:44;;;;;;;12.70;12.03;;;13.70;35.10;;;;;;4993302;28;20589;-47
2022/09/17 09:44:14;;;;;;;12.67;11.97;;;14.00;37.00;;;;;;4994148;28;20424;-46
2022/09/17 09:47:17;;;;;;;14.23;12.90;;;14.00;35.50;;;;;;4993904;28;20420;-46
2022/09/17 09:50:01;;;;;;;12.20;11.70;;;14.30;36.10;;;;;;4993483;28;20416;-48
2022/09/17 09:52:26;;;;;;;13.57;12.87;;;14.60;35.60;;;;;;4993578;28;20464;-48
2022/09/17 09:55:08;;;;;;;12.80;12.00;;;14.50;35.40;;;;;;4993144;28;20424;-44
2022/09/17 09:57:45;;;;;;;12.20;11.40;;;14.60;33.50;;;;;;4993213;28;20188;-47
2022/09/17 10:00:35;;;;;;;11.13;10.53;;;14.40;33.70;;;;;;4993038;28;20489;-41
2022/09/17 10:03:20;;;;;;;11.90;11.30;;;14.10;34.20;;;;;;4993386;28;20428;-47
2022/09/17 10:05:59;;;;;;;12.27;11.57;;;14.20;35.60;;;;;;4993903;28;20795;-46
2022/09/17 10:08:26;;;;;;;11.50;11.00;;;14.00;34.00;;;;;;4993741;28;20423;-49
2022/09/17 10:10:56;;;;;;;11.97;11.37;;;14.00;35.00;;;;;;4993261;28;20416;-42
2022/09/17 10:13:23;;;;;;;11.53;11.03;;;14.30;32.40;;;;;;4992789;28;20468;-43
2022/09/17 10:15:48;;;;;;;11.80;11.30;;;14.30;34.50;;;;;;4992730;28;20499;-44
2022/09/17 10:18:20;;;;;;;11.40;10.80;;;14.30;32.40;;;;;;4993687;28;20550;-46
2022/09/17 10:20:55;;;;;;;12.43;11.90;;;14.60;32.90;;;;;;4993433;28;20177;-51
2022/09/17 10:23:23;;;;;;;12.00;11.17;;;14.70;30.00;;;;;;4993542;28;20427;-48
2022/09/17 10:25:51;;;;;;;11.33;10.83;;;14.70;29.50;;;;;;4956912;28;1078308;-47
2022/09/17 10:28:43;;;;;;;12.23;11.37;;;14.70;29.10;;;;;;4994377;28;20186;-47
2022/09/17 10:31:09;;;;;;;10.87;10.13;;;14.80;28.50;;;;;;4994396;28;20436;-45
2022/09/17 10:33:49;;;;;;;12.10;11.33;;;14.90;29.00;;;;;;5011852;28;20506;-46
2022/09/17 10:36:14;;;;;;;11.87;11.03;;;14.90;28.10;;;;;;4994481;28;20458;-49
2022/09/17 10:38:43;;;;;;;11.60;11.20;;;14.90;29.30;;;;;;4994033;28;20456;-47
2022/09/17 10:41:23;;;;;;;11.67;11.27;;;15.10;29.00;;;;;;4993233;28;20269;-44
2022/09/17 10:43:50;;;;;;;10.63;10.13;;;15.20;28.30;;;;;;4994645;28;20425;-47
2022/09/17 10:46:29;;;;;;;12.20;11.43;;;15.30;27.70;;;;;;4993819;28;20528;-47
2022/09/17 10:49:07;;;;;;;12.07;11.40;;;15.40;26.90;;;;;;4994319;28;20427;-48
2022/09/17 10:51:33;;;;;;;10.27;9.70;;;15.30;27.20;;;;;;4993902;28;20428;-49
2022/09/17 10:54:15;;;;;;;9.87;9.40;;;15.00;25.80;;;;;;5004238;28;20558;-47
2022/09/17 10:56:46;;;;;;;10.67;10.10;;;14.90;27.20;;;;;;5046288;28;20415;-47
2022/09/17 10:59:15;;;;;;;11.20;10.77;;;15.10;26.70;;;;;;5013988;28;20766;-53
2022/09/17 11:02:03;;;;;;;10.17;9.87;;;15.10;26.30;;;;;;5013503;28;20420;-45
2022/09/17 11:04:46;;;;;;;10.23;9.83;;;14.90;26.40;;;;;;5046144;28;20817;-46
2022/09/17 11:07:12;;;;;;;11.07;10.57;;;14.90;26.20;;;;;;5013430;28;20419;-45
2022/09/17 11:09:44;;;;;;;10.03;9.63;;;15.00;25.30;;;;;;5013734;28;20422;-42
2022/09/17 11:12:28;;;;;;;11.30;10.70;;;15.00;26.60;;;;;;5016731;28;20419;-45
2022/09/17 11:15:06;;;;;;;10.57;10.17;;;15.10;26.30;;;;;;5050540;28;20411;-49
2022/09/17 11:17:41;;;;;;;10.63;9.83;;;14.90;26.10;;;;;;5017382;28;20419;-45
2022/09/17 11:20:18;;;;;;;10.47;9.93;;;15.20;26.10;;;;;;5050156;28;20465;-45
2022/09/17 11:22:55;;;;;;;10.97;10.57;;;15.40;25.60;;;;;;5050564;28;20441;-46
2022/09/17 11:25:57;;;;;;;10.63;10.23;;;15.40;24.60;;;;;;5016928;28;20446;-45
2022/09/17 11:28:26;;;;;;;10.47;9.97;;;15.60;24.30;;;;;;5000616;28;20462;-45
2022/09/17 11:31:02;;;;;;;10.70;10.20;;;15.50;23.10;;;;;;5050018;28;20430;-43
2022/09/17 11:33:35;;;;;;;9.27;8.97;;;15.50;25.10;;;;;;5017104;28;20467;-46
2022/09/17 11:36:09;;;;;;;9.37;8.90;;;15.50;23.30;;;;;;5034910;28;20422;-47
2022/09/17 11:38:48;;;;;;;9.93;9.53;;;15.60;22.90;;;;;;5017415;28;20884;-51
2022/09/17 11:41:28;;;;;;;9.60;9.10;;;15.60;23.40;;;;;;5016841;28;20422;-47
2022/09/17 11:44:08;;;;;;;10.23;9.90;;;15.50;22.30;;;;;;5016827;28;20423;-49
2022/09/17 11:46:42;;;;;;;9.60;9.07;;;15.30;22.60;;;;;;5017298;28;20776;-50
2022/09/17 11:49:17;;;;;;;8.53;8.30;;;15.10;23.10;;;;;;5011928;28;20437;-51
2022/09/17 11:51:47;;;;;;;9.00;8.60;;;15.20;23.30;;;;;;5011411;28;20516;-53
2022/09/17 11:54:13;;;;;;;9.33;8.93;;;15.20;22.70;;;;;;5016642;28;20513;-50
2022/09/17 11:57:02;;;;;;;9.40;9.07;;;15.30;23.00;;;;;;5050110;28;20456;-48
2022/09/17 11:59:41;;;;;;;8.97;8.40;;;15.30;22.70;;;;;;5016545;28;20199;-48
2022/09/17 12:02:20;;;;;;;22.43;16.80;;;15.30;22.50;;;;;;5014157;28;20430;-49
2022/09/17 12:04:55;;;;;;;9.77;8.97;;;15.30;23.00;;;;;;5047081;28;20407;-51
2022/09/17 12:07:35;;;;;;;9.73;9.17;;;15.40;22.30;;;;;;5013364;28;20423;-50
2022/09/17 12:10:25;;;;;;;9.57;8.97;;;15.50;22.10;;;;;;5012996;28;20411;-52
2022/09/17 12:13:08;;;;;;;8.73;8.33;;;15.60;22.00;;;;;;5014620;28;20458;-46
2022/09/17 12:15:37;;;;;;;9.67;9.07;;;15.70;22.30;;;;;;5015034;28;20415;-46
2022/09/17 12:18:26;;;;;;;9.60;9.20;;;15.70;26.50;;;;;;5015468;28;20785;-46
2022/09/17 12:20:56;;;;;;;10.00;9.70;;;15.60;25.80;;;;;;5047347;28;20840;-49
2022/09/17 12:23:37;;;;;;;9.60;9.20;;;15.50;26.60;;;;;;5013016;28;20930;-52
2022/09/17 12:26:29;;;;;;;9.37;8.87;;;15.50;27.40;;;;;;5013270;28;20439;-51
2022/09/17 12:29:54;;;;;;;10.90;10.30;;;15.40;26.80;;;;;;4988988;28;20462;-51
2022/09/17 12:32:49;;;;;;;10.40;9.80;;;15.40;28.30;;;;;;4925438;29;20904;-49
2022/09/17 12:35:40;;;;;;;9.17;8.83;;;15.30;26.80;;;;;;5014516;28;20439;-47
2022/09/17 12:38:27;;;;;;;9.57;9.07;;;15.20;26.70;;;;;;5046627;28;20415;-52
2022/09/17 12:40:59;;;;;;;10.60;10.03;;;15.20;27.90;;;;;;5014168;28;20427;-50
2022/09/17 12:43:28;;;;;;;10.10;9.80;;;15.10;27.80;;;;;;5016095;28;20447;-52
2022/09/17 12:46:12;;;;;;;10.23;9.83;;;15.20;28.60;;;;;;5016395;28;20793;-47
2022/09/17 12:48:42;;;;;;;10.47;10.00;;;15.20;27.10;;;;;;5048100;28;20458;-44
2022/09/17 12:51:25;;;;;;;10.37;9.87;;;15.10;28.70;;;;;;5012603;28;20429;-45
2022/09/17 12:54:00;;;;;;;11.00;10.70;;;14.60;31.60;;;;;;5010808;28;20971;-48